Time;durP1;ratioP1;P1;durP2;ratioP2;P2;SDS_P1;SDS_P2;PMS_P1;PMS_P2;Temp;Humidity;BMP_temperature;BMP_pressure;BME280_temperature;BME280_humidity;BME280_pressure;Samples;Min_cycle;Max_cycle;Signal;HPM_P1;HPM_P2
2021/12/04 00:03:31;;;;;;;2.33;1.00;;;;;;;;;;8208564;28;20528;-72
2021/12/04 00:07:33;;;;;;;1.98;1.10;;;;;;;;;;8212071;28;20030;-72
2021/12/04 00:11:40;;;;;;;0.90;0.90;;;;;;;;;;8209975;28;20026;-72
2021/12/04 00:15:40;;;;;;;1.10;1.00;;;;;;;;;;8209889;28;20272;-72
2021/12/04 00:19:40;;;;;;;1.17;0.90;;;;;;;;;;8208347;28;20026;-72
2021/12/04 00:23:41;;;;;;;0.90;0.90;;;;;;;;;;8211420;28;20027;-72
2021/12/04 00:27:41;;;;;;;1.87;1.07;;;;;;;;;;8199299;28;20023;-72
2021/12/04 00:31:46;;;;;;;3.20;0.90;;;;;;;;;;8206070;28;20262;-72
2021/12/04 00:35:52;;;;;;;1.00;1.00;;;;;;;;;;8207344;28;20361;-72
2021/12/04 00:52:48;;;;;;;4.47;1.10;;;;;;;;;;8205321;28;20516;-72
2021/12/04 00:56:49;;;;;;;2.35;0.82;;;;;;;;;;8202788;28;20087;-73
2021/12/04 01:00:50;;;;;;;1.10;0.70;;;;;;;;;;8207362;28;20042;-72
2021/12/04 01:04:50;;;;;;;0.80;0.80;;;;;;;;;;8207636;28;20034;-72
2021/12/04 01:08:50;;;;;;;0.90;0.90;;;;;;;;;;8206872;28;20030;-72
2021/12/04 01:12:51;;;;;;;0.80;0.70;;;;;;;;;;8206333;28;20027;-72
2021/12/04 01:16:51;;;;;;;0.77;0.77;;;;;;;;;;8206022;28;20981;-72
2021/12/04 01:20:51;;;;;;;0.93;0.82;;;;;;;;;;8205339;28;20408;-72
2021/12/04 01:24:51;;;;;;;1.05;0.90;;;;;;;;;;8206584;28;20752;-72
2021/12/04 01:28:52;;;;;;;0.60;0.60;;;;;;;;;;8206059;28;20043;-72
2021/12/04 01:32:52;;;;;;;0.60;0.60;;;;;;;;;;8204714;28;20039;-72
2021/12/04 01:36:52;;;;;;;0.93;0.70;;;;;;;;;;8206285;28;20773;-72
2021/12/04 01:40:52;;;;;;;0.50;0.50;;;;;;;;;;8205515;28;20069;-72
2021/12/04 01:44:53;;;;;;;0.70;0.70;;;;;;;;;;8204790;28;20052;-72
2021/12/04 01:48:53;;;;;;;1.77;0.80;;;;;;;;;;8207543;28;20294;-72
2021/12/04 01:52:56;;;;;;;1.85;0.90;;;;;;;;;;8208729;28;20082;-72
2021/12/04 01:56:56;;;;;;;1.88;0.93;;;;;;;;;;8206707;28;20133;-72
2021/12/04 02:00:56;;;;;;;1.08;0.90;;;;;;;;;;8204233;28;20050;-72
2021/12/04 02:04:56;;;;;;;0.90;0.90;;;;;;;;;;8206744;28;20423;-72
2021/12/04 02:08:57;;;;;;;0.50;0.50;;;;;;;;;;8207564;28;20122;-72
2021/12/04 02:12:57;;;;;;;0.68;0.68;;;;;;;;;;8208018;28;20070;-73
2021/12/04 02:16:57;;;;;;;1.40;1.10;;;;;;;;;;8206867;28;20097;-72
2021/12/04 02:20:57;;;;;;;1.50;1.25;;;;;;;;;;8203783;28;20165;-72
2021/12/04 02:24:57;;;;;;;2.22;1.65;;;;;;;;;;8206305;28;20035;-72
2021/12/04 02:28:58;;;;;;;1.85;1.40;;;;;;;;;;8202345;28;20034;-72
2021/12/04 02:32:58;;;;;;;1.15;1.05;;;;;;;;;;8203228;28;20117;-72
2021/12/04 02:36:59;;;;;;;7.75;1.23;;;;;;;;;;8205816;28;20035;-73
2021/12/04 02:41:00;;;;;;;1.00;1.00;;;;;;;;;;8202593;28;20050;-72
2021/12/04 02:45:02;;;;;;;10.93;1.35;;;;;;;;;;8201730;28;20157;-72
2021/12/04 02:49:05;;;;;;;47.60;3.45;;;;;;;;;;8204028;28;20480;-72
2021/12/04 02:53:05;;;;;;;73.10;4.00;;;;;;;;;;8205489;28;20019;-72
2021/12/04 02:57:07;;;;;;;56.70;3.33;;;;;;;;;;8205248;28;20971;-72
2021/12/04 03:01:07;;;;;;;49.42;3.35;;;;;;;;;;8205849;28;20043;-72
2021/12/04 03:05:10;;;;;;;49.38;4.47;;;;;;;;;;8207211;28;20150;-72
2021/12/04 03:09:11;;;;;;;136.18;5.35;;;;;;;;;;8207621;28;20484;-72
2021/12/04 03:13:12;;;;;;;29.38;2.72;;;;;;;;;;8205802;28;20505;-72
2021/12/04 03:17:16;;;;;;;123.60;4.22;;;;;;;;;;8206953;28;20039;-71
2021/12/04 03:21:16;;;;;;;12.73;2.15;;;;;;;;;;8207333;28;21002;-72
2021/12/04 03:25:19;;;;;;;41.55;2.67;;;;;;;;;;8206152;28;20034;-71
2021/12/04 03:29:22;;;;;;;39.25;2.80;;;;;;;;;;8205166;28;20110;-72
2021/12/04 03:41:50;;;;;;;14.95;2.58;;;;;;;;;;8211779;28;20034;-72
2021/12/04 03:45:58;;;;;;;3.30;2.05;;;;;;;;;;8211381;28;20057;-72
2021/12/04 03:49:58;;;;;;;7.65;2.92;;;;;;;;;;8212423;28;20027;-72
2021/12/04 03:53:58;;;;;;;10.40;2.15;;;;;;;;;;8213658;28;20109;-72
2021/12/04 03:57:59;;;;;;;3.75;2.92;;;;;;;;;;8211360;28;20137;-72
2021/12/04 04:01:59;;;;;;;26.55;2.75;;;;;;;;;;8210007;28;20043;-73
2021/12/04 04:05:59;;;;;;;27.45;3.10;;;;;;;;;;8212718;28;20030;-72
2021/12/04 04:10:00;;;;;;;6.18;3.17;;;;;;;;;;8212255;28;20029;-72
2021/12/04 04:14:00;;;;;;;7.28;4.00;;;;;;;;;;8211532;28;20110;-72
2021/12/04 04:18:00;;;;;;;3.47;2.50;;;;;;;;;;8209605;28;20046;-72
2021/12/04 04:22:00;;;;;;;4.30;2.95;;;;;;;;;;8210459;28;20093;-72
2021/12/04 04:26:01;;;;;;;3.42;2.50;;;;;;;;;;8208871;28;20078;-72
2021/12/04 04:30:03;;;;;;;3.17;2.88;;;;;;;;;;8208900;28;20030;-71
2021/12/04 04:34:07;;;;;;;2.50;2.30;;;;;;;;;;8206978;28;20046;-71
2021/12/04 04:59:40;;;;;;;4.90;2.70;;;;;;;;;;8209786;28;20145;-72
2021/12/04 05:17:03;;;;;;;10.82;4.68;;;;;;;;;;8209093;28;20158;-72
2021/12/04 05:21:05;;;;;;;69.55;3.90;;;;;;;;;;8210245;28;20023;-72
2021/12/04 05:25:05;;;;;;;154.60;5.00;;;;;;;;;;8209744;28;20101;-72
2021/12/04 05:29:05;;;;;;;100.72;3.47;;;;;;;;;;8208710;28;20015;-72
2021/12/04 05:33:05;;;;;;;131.02;5.10;;;;;;;;;;8207831;28;20039;-72
2021/12/04 05:37:06;;;;;;;357.33;8.70;;;;;;;;;;8206296;28;20045;-71
2021/12/04 05:41:06;;;;;;;115.55;4.25;;;;;;;;;;8206474;28;20030;-72
2021/12/04 05:45:13;;;;;;;260.45;6.78;;;;;;;;;;8206034;28;20289;-72
2021/12/04 05:49:19;;;;;;;233.07;6.43;;;;;;;;;;8208144;28;20029;-73
2021/12/04 05:53:25;;;;;;;153.50;5.03;;;;;;;;;;8207425;28;20830;-71
2021/12/04 05:57:26;;;;;;;93.07;7.68;;;;;;;;;;8205693;28;20026;-72
2021/12/04 06:01:27;;;;;;;19.63;6.35;;;;;;;;;;8205463;28;20050;-72
2021/12/04 06:05:27;;;;;;;11.93;6.72;;;;;;;;;;8207361;28;20035;-72
2021/12/04 06:09:27;;;;;;;9.73;5.82;;;;;;;;;;8206750;28;20093;-72
2021/12/04 06:13:27;;;;;;;11.07;4.88;;;;;;;;;;8206503;28;20311;-72
2021/12/04 06:17:29;;;;;;;68.70;4.63;;;;;;;;;;8203812;28;20038;-72
2021/12/04 06:25:48;;;;;;;41.92;3.88;;;;;;;;;;8206577;28;20049;-72
2021/12/04 06:29:48;;;;;;;148.00;5.90;;;;;;;;;;8208189;28;20464;-72
2021/12/04 06:33:48;;;;;;;197.33;6.63;;;;;;;;;;8207238;28;20031;-72
2021/12/04 06:37:49;;;;;;;376.40;9.40;;;;;;;;;;8204790;28;21272;-72
2021/12/04 06:41:49;;;;;;;390.85;9.43;;;;;;;;;;8205741;28;20277;-72
2021/12/04 06:45:58;;;;;;;307.88;9.00;;;;;;;;;;8207067;28;20761;-73
2021/12/04 06:50:05;;;;;;;494.70;12.25;;;;;;;;;;8208243;28;20107;-72
2021/12/04 06:54:17;;;;;;;293.70;8.57;;;;;;;;;;8206529;28;20073;-72
2021/12/04 06:58:18;;;;;;;210.23;7.85;;;;;;;;;;8206230;28;20454;-72
2021/12/04 07:02:18;;;;;;;205.68;8.88;;;;;;;;;;8202408;28;20376;-72
2021/12/04 07:06:18;;;;;;;130.90;7.68;;;;;;;;;;8204487;28;20023;-72
2021/12/04 07:10:19;;;;;;;64.35;6.10;;;;;;;;;;8204714;28;20042;-71
2021/12/04 07:14:19;;;;;;;24.92;7.05;;;;;;;;;;8214320;28;20058;-71
2021/12/04 07:18:19;;;;;;;12.02;5.85;;;;;;;;;;8212062;28;20097;-71
2021/12/04 07:22:19;;;;;;;14.80;6.72;;;;;;;;;;8212843;28;20022;-71
2021/12/04 07:26:19;;;;;;;9.30;4.82;;;;;;;;;;8210428;28;20033;-71
2021/12/04 07:30:21;;;;;;;117.25;6.00;;;;;;;;;;8212502;28;20030;-71
2021/12/04 07:34:21;;;;;;;33.00;7.68;;;;;;;;;;8209723;28;20034;-71
2021/12/04 07:38:21;;;;;;;17.00;5.28;;;;;;;;;;8209646;28;20038;-72
2021/12/04 07:42:21;;;;;;;62.03;4.65;;;;;;;;;;8209226;28;20019;-73
2021/12/04 07:46:21;;;;;;;159.55;6.80;;;;;;;;;;8211781;28;20423;-73
2021/12/04 07:50:22;;;;;;;176.90;7.55;;;;;;;;;;8212886;28;20035;-73
2021/12/04 07:54:22;;;;;;;126.32;6.32;;;;;;;;;;8211244;28;20274;-73
2021/12/04 07:58:22;;;;;;;340.60;9.18;;;;;;;;;;8209672;28;20027;-73
2021/12/04 08:02:23;;;;;;;109.88;5.93;;;;;;;;;;8209062;28;20039;-73
2021/12/04 08:06:23;;;;;;;184.17;6.70;;;;;;;;;;8212287;28;20309;-73
2021/12/04 08:10:23;;;;;;;195.68;6.93;;;;;;;;;;8210015;28;20282;-73
2021/12/04 08:14:24;;;;;;;250.13;7.75;;;;;;;;;;8214395;28;20038;-73
2021/12/04 08:18:24;;;;;;;150.50;6.43;;;;;;;;;;8209219;28;20827;-73
2021/12/04 08:22:24;;;;;;;146.68;6.82;;;;;;;;;;8210704;28;20309;-73
2021/12/04 08:26:24;;;;;;;59.50;4.35;;;;;;;;;;8211091;28;20054;-73
2021/12/04 08:30:26;;;;;;;215.90;7.78;;;;;;;;;;8208553;28;20057;-72
2021/12/04 08:34:26;;;;;;;253.95;8.10;;;;;;;;;;8206588;28;20077;-73
2021/12/04 08:38:27;;;;;;;101.78;6.53;;;;;;;;;;8209755;28;20042;-72
2021/12/04 08:42:27;;;;;;;250.20;7.43;;;;;;;;;;8208763;28;20039;-73
2021/12/04 08:46:27;;;;;;;267.63;7.32;;;;;;;;;;8209606;28;20054;-73
2021/12/04 08:50:29;;;;;;;178.93;6.38;;;;;;;;;;8210729;28;20035;-72
2021/12/04 08:54:29;;;;;;;207.32;7.10;;;;;;;;;;8208970;28;20114;-73
2021/12/04 08:58:30;;;;;;;225.50;7.03;;;;;;;;;;8206888;28;20026;-73
2021/12/04 09:02:32;;;;;;;342.77;8.65;;;;;;;;;;8204894;28;20643;-73
2021/12/04 09:06:32;;;;;;;92.63;4.75;;;;;;;;;;8204084;28;20097;-73
2021/12/04 09:10:33;;;;;;;95.00;4.78;;;;;;;;;;8209397;28;20130;-73
2021/12/04 09:14:34;;;;;;;163.65;6.22;;;;;;;;;;8209329;28;20589;-73
2021/12/04 09:18:35;;;;;;;76.43;5.25;;;;;;;;;;8208738;28;20105;-73
2021/12/04 09:22:37;;;;;;;66.88;5.85;;;;;;;;;;8209808;28;20037;-73
2021/12/04 09:26:53;;;;;;;94.75;5.95;;;;;;;;;;8207788;28;20970;-73
2021/12/04 09:31:46;;;;;;;119.28;6.85;;;;;;;;;;8209011;28;20046;-73
2021/12/04 09:35:29;;;;;;;79.07;7.10;;;;;;;;;;8205587;28;20038;-73
2021/12/04 10:01:41;;;;;;;242.55;6.95;;;;;;;;;;8351896;27;20389;-61
2021/12/04 10:06:08;;;;;;;160.15;5.68;;;;;;;;;;8277401;28;20040;-61
2021/12/04 10:22:44;;;;;;;62.75;4.22;;;;;;;;;;8276274;28;20067;-61
2021/12/04 10:35:15;;;;;;;166.02;5.50;;;;;;;;;;8275505;28;20056;-61
2021/12/04 10:39:16;;;;;;;53.47;4.03;;;;;;;;;;8295342;28;20041;-61
2021/12/04 10:43:22;;;;;;;186.70;5.53;;;;;;;;;;8310664;28;20329;-61
2021/12/04 10:47:25;;;;;;;282.73;7.15;;;;;;;;;;8309034;28;20033;-62
2021/12/04 10:51:36;;;;;;;108.15;4.70;;;;;;;;;;8309793;28;20963;-61
2021/12/04 10:55:47;;;;;;;79.18;4.35;;;;;;;;;;8307717;28;20468;-61
2021/12/04 11:38:19;;;;;;;60.55;6.53;;;;;;;;;;8284292;28;20023;-61
2021/12/04 11:42:55;;;;;;;102.13;7.40;;;;;;;;;;8281782;28;20029;-61
2021/12/04 11:46:48;;;;;;;295.92;11.73;;;;;;;;;;8280684;28;20043;-61
2021/12/04 11:50:52;;;;;;;83.63;8.30;;;;;;;;;;8281858;28;20037;-61
2021/12/04 11:54:57;;;;;;;329.60;12.48;;;;;;;;;;8282159;28;20033;-61
2021/12/04 11:58:57;;;;;;;464.88;14.55;;;;;;;;;;8281378;28;20372;-61
2021/12/04 12:03:05;;;;;;;233.40;10.55;;;;;;;;;;8280244;28;20455;-61
2021/12/04 12:07:13;;;;;;;140.68;8.43;;;;;;;;;;8277026;28;20079;-61
2021/12/04 12:11:25;;;;;;;405.52;12.60;;;;;;;;;;8277534;28;20160;-61
2021/12/04 12:15:31;;;;;;;617.97;16.98;;;;;;;;;;8279913;28;20607;-61
2021/12/04 12:19:41;;;;;;;295.70;9.93;;;;;;;;;;8278089;28;20363;-61
2021/12/04 12:33:01;;;;;;;320.02;9.45;;;;;;;;;;8277728;28;20140;-61
2021/12/04 12:37:15;;;;;;;98.38;5.35;;;;;;;;;;8281100;28;20112;-61
2021/12/04 12:41:21;;;;;;;315.27;9.70;;;;;;;;;;8279721;28;20056;-61
2021/12/04 12:45:29;;;;;;;528.20;14.80;;;;;;;;;;8277841;28;20094;-61
2021/12/04 12:49:29;;;;;;;655.03;17.27;;;;;;;;;;8281349;28;20431;-61
2021/12/04 12:53:30;;;;;;;422.23;12.93;;;;;;;;;;8280085;28;20029;-61
2021/12/04 12:57:38;;;;;;;303.98;19.02;;;;;;;;;;8280591;28;20287;-61
2021/12/04 13:14:51;;;;;;;12.77;6.30;;;;;;;;;;8279858;28;20582;-61
2021/12/04 13:18:53;;;;;;;8.95;5.70;;;;;;;;;;8277544;28;20044;-61
2021/12/04 13:22:53;;;;;;;4.63;3.55;;;;;;;;;;8277929;28;20029;-61
2021/12/04 13:26:55;;;;;;;4.93;3.28;;;;;;;;;;8279968;28;20022;-61
2021/12/04 13:30:57;;;;;;;4.80;2.13;;;;;;;;;;8278959;28;20037;-61
2021/12/04 13:35:03;;;;;;;8.38;1.70;;;;;;;;;;8277048;28;20021;-61
2021/12/04 13:39:05;;;;;;;12.55;3.22;;;;;;;;;;8276711;28;20029;-61
2021/12/04 13:43:09;;;;;;;4.95;3.50;;;;;;;;;;8277934;28;20033;-61
2021/12/04 13:47:11;;;;;;;3.00;2.50;;;;;;;;;;8278006;28;20079;-62
2021/12/04 13:51:12;;;;;;;3.25;2.50;;;;;;;;;;8276529;28;20531;-61
2021/12/04 13:55:13;;;;;;;168.20;7.07;;;;;;;;;;8276467;28;20939;-61
2021/12/04 13:59:14;;;;;;;613.75;18.63;;;;;;;;;;8261628;28;20076;-61
2021/12/04 14:03:19;;;;;;;1056.80;26.88;;;;;;;;;;8280001;28;20041;-61
2021/12/04 14:07:19;;;;;;;931.58;34.25;;;;;;;;;;8276179;28;20040;-61
2021/12/04 14:11:26;;;;;;;410.00;22.50;;;;;;;;;;8278563;28;20030;-61
2021/12/04 14:15:27;;;;;;;44.03;10.82;;;;;;;;;;8276048;28;20038;-61
2021/12/04 14:19:29;;;;;;;8.10;5.10;;;;;;;;;;8278027;28;20040;-61
2021/12/04 14:23:30;;;;;;;4.15;3.00;;;;;;;;;;8276327;28;20034;-61
2021/12/04 14:27:32;;;;;;;3.72;2.03;;;;;;;;;;8275723;28;20156;-61
2021/12/04 14:31:32;;;;;;;2.03;1.83;;;;;;;;;;8275640;28;20124;-61
2021/12/04 14:35:38;;;;;;;1.30;1.20;;;;;;;;;;8276223;28;20034;-61
2021/12/04 14:39:43;;;;;;;5.50;4.55;;;;;;;;;;8277858;28;20974;-61
2021/12/04 14:43:44;;;;;;;326.92;10.70;;;;;;;;;;8274087;28;20613;-61
2021/12/04 14:47:47;;;;;;;22.10;4.55;;;;;;;;;;8282039;28;20456;-61
2021/12/04 14:51:47;;;;;;;1.80;1.40;;;;;;;;;;8283622;28;20166;-61
2021/12/04 14:55:48;;;;;;;1.50;0.95;;;;;;;;;;8281090;28;20090;-63
2021/12/04 15:00:18;;;;;;;0.60;0.60;;;;;;;;;;8279003;28;20049;-63
2021/12/04 15:04:18;;;;;;;0.70;0.70;;;;;;;;;;8276972;28;20041;-64
2021/12/04 15:08:26;;;;;;;4.57;2.60;;;;;;;;;;8282388;28;20297;-63
2021/12/04 15:12:30;;;;;;;2.05;1.00;;;;;;;;;;8283205;28;20041;-63
2021/12/04 15:20:32;;;;;;;1.77;1.30;;;;;;;;;;8283651;28;20038;-63
2021/12/04 15:24:35;;;;;;;1.38;1.27;;;;;;;;;;8281122;28;20064;-63
2021/12/04 15:28:36;;;;;;;1.83;1.70;;;;;;;;;;8281321;28;20042;-63
2021/12/04 15:32:39;;;;;;;3.40;2.85;;;;;;;;;;8281720;28;20041;-63
2021/12/04 15:36:44;;;;;;;3.97;2.40;;;;;;;;;;8282592;28;20331;-63
2021/12/04 15:53:18;;;;;;;3.33;2.13;;;;;;;;;;8284452;28;20035;-63
2021/12/04 15:57:21;;;;;;;2.75;1.98;;;;;;;;;;8283092;28;20030;-64
2021/12/04 16:01:26;;;;;;;3.83;2.30;;;;;;;;;;8267401;28;20771;-64
2021/12/04 16:05:28;;;;;;;1.85;1.65;;;;;;;;;;8281658;28;20030;-63
2021/12/04 16:09:31;;;;;;;2.60;1.63;;;;;;;;;;8280243;28;20572;-63
2021/12/04 16:13:34;;;;;;;3.70;1.73;;;;;;;;;;8286475;28;20030;-64
2021/12/04 16:17:34;;;;;;;2.40;1.58;;;;;;;;;;8282247;28;20579;-64
2021/12/04 16:21:35;;;;;;;2.17;1.30;;;;;;;;;;8281028;28;20053;-63
2021/12/04 16:25:37;;;;;;;1.40;1.30;;;;;;;;;;8280237;28;20589;-64
2021/12/04 16:29:46;;;;;;;1.15;1.08;;;;;;;;;;8280887;28;20028;-63
2021/12/04 16:37:50;;;;;;;1.45;1.35;;;;;;;;;;8277789;28;20529;-63
2021/12/04 16:41:54;;;;;;;1.40;1.30;;;;;;;;;;8277050;28;20419;-63
2021/12/04 16:45:55;;;;;;;1.50;1.40;;;;;;;;;;8276528;28;20749;-64
2021/12/04 16:49:55;;;;;;;2.03;1.60;;;;;;;;;;8279872;28;20480;-63
2021/12/04 16:58:17;;;;;;;1.23;1.00;;;;;;;;;;8274387;28;20092;-64
2021/12/04 17:02:19;;;;;;;1.13;1.10;;;;;;;;;;8276476;28;20458;-64
2021/12/04 17:06:20;;;;;;;1.15;1.05;;;;;;;;;;8278531;28;20144;-64
2021/12/04 17:10:20;;;;;;;3.78;0.90;;;;;;;;;;8276959;28;20064;-63
2021/12/04 17:14:21;;;;;;;0.75;0.75;;;;;;;;;;8280659;28;20753;-63
2021/12/04 17:18:25;;;;;;;4.20;1.30;;;;;;;;;;8282317;28;20371;-63
2021/12/04 17:22:26;;;;;;;0.90;0.90;;;;;;;;;;8277366;28;20520;-63
2021/12/04 17:26:26;;;;;;;1.02;1.00;;;;;;;;;;8278357;28;20033;-63
2021/12/04 17:30:27;;;;;;;0.70;0.70;;;;;;;;;;8278791;28;20041;-63
2021/12/04 17:34:27;;;;;;;0.90;0.90;;;;;;;;;;8279052;28;20044;-63
2021/12/04 17:38:27;;;;;;;1.25;0.70;;;;;;;;;;8276175;28;20713;-63
2021/12/04 17:42:27;;;;;;;0.70;0.70;;;;;;;;;;8279517;28;20030;-63
2021/12/04 17:46:28;;;;;;;1.10;1.00;;;;;;;;;;8277671;28;20380;-63
2021/12/04 17:50:28;;;;;;;2.78;1.63;;;;;;;;;;8279160;28;20872;-63
2021/12/04 17:54:30;;;;;;;2.00;1.10;;;;;;;;;;8280020;28;20474;-64
2021/12/04 17:58:31;;;;;;;1.20;1.10;;;;;;;;;;8279345;28;20033;-64
2021/12/04 18:02:31;;;;;;;0.98;0.90;;;;;;;;;;8275350;28;20045;-63
2021/12/04 18:06:31;;;;;;;0.80;0.80;;;;;;;;;;8276325;28;20025;-63
2021/12/04 18:10:33;;;;;;;1.13;0.90;;;;;;;;;;8276440;28;20159;-63
2021/12/04 18:14:36;;;;;;;0.68;0.68;;;;;;;;;;8276975;28;20476;-63
2021/12/04 18:18:36;;;;;;;1.27;0.77;;;;;;;;;;8283499;28;20467;-63
2021/12/04 18:22:37;;;;;;;1.00;0.90;;;;;;;;;;8283312;28;20021;-63
2021/12/04 18:26:38;;;;;;;0.63;0.63;;;;;;;;;;8281506;28;20030;-63
2021/12/04 18:30:39;;;;;;;0.80;0.70;;;;;;;;;;8281434;28;20037;-64
2021/12/04 18:34:39;;;;;;;0.75;0.70;;;;;;;;;;8281439;28;20561;-63
2021/12/04 18:38:41;;;;;;;0.80;0.80;;;;;;;;;;8283373;28;20442;-64
2021/12/04 18:42:42;;;;;;;1.08;0.90;;;;;;;;;;8287850;28;20033;-64
2021/12/04 18:46:43;;;;;;;1.00;0.93;;;;;;;;;;8284415;28;20033;-64
2021/12/04 18:50:44;;;;;;;0.73;0.68;;;;;;;;;;8289068;28;20041;-64
2021/12/04 18:54:44;;;;;;;0.80;0.80;;;;;;;;;;8286884;28;20199;-64
2021/12/04 18:58:45;;;;;;;0.80;0.80;;;;;;;;;;8284946;28;20029;-63
2021/12/04 19:02:48;;;;;;;0.80;0.80;;;;;;;;;;8286528;28;20033;-64
2021/12/04 19:06:48;;;;;;;0.90;0.85;;;;;;;;;;8284737;28;20063;-63
2021/12/04 19:10:49;;;;;;;1.03;0.70;;;;;;;;;;8298339;28;20622;-64
2021/12/04 19:14:49;;;;;;;1.93;1.20;;;;;;;;;;8288441;28;20661;-63
2021/12/04 19:18:49;;;;;;;1.37;1.00;;;;;;;;;;8286688;28;20719;-63
2021/12/04 19:22:49;;;;;;;2.25;1.00;;;;;;;;;;8285965;28;20299;-63
2021/12/04 19:26:50;;;;;;;1.50;0.90;;;;;;;;;;8286306;28;20589;-63
2021/12/04 19:31:00;;;;;;;1.77;1.10;;;;;;;;;;8285435;28;20042;-64
2021/12/04 19:52:12;;;;;;;3.63;1.83;;;;;;;;;;8284115;28;20087;-64
2021/12/04 19:56:27;;;;;;;3.22;1.90;;;;;;;;;;8287315;28;20025;-64
2021/12/04 20:00:34;;;;;;;7.47;2.15;;;;;;;;;;8286718;28;20048;-63
2021/12/04 20:04:48;;;;;;;4.05;1.75;;;;;;;;;;8284263;28;20494;-63
2021/12/04 20:09:08;;;;;;;4.55;2.03;;;;;;;;;;8283255;28;20021;-64
2021/12/04 20:17:11;;;;;;;5.65;1.85;;;;;;;;;;8282291;28;20037;-64
2021/12/04 20:21:14;;;;;;;5.57;1.80;;;;;;;;;;8284265;28;20030;-63
2021/12/04 20:25:21;;;;;;;8.10;2.13;;;;;;;;;;8284380;28;20112;-64
2021/12/04 20:30:18;;;;;;;5.53;1.80;;;;;;;;;;8288590;28;20079;-64
2021/12/04 20:34:03;;;;;;;4.50;1.75;;;;;;;;;;8277270;28;20037;-63
2021/12/04 21:08:09;;;;;;;5.13;1.60;;;;;;;;;;8281442;28;20030;-63
2021/12/04 21:12:34;;;;;;;4.57;1.42;;;;;;;;;;8284431;28;20079;-63
2021/12/04 21:51:06;;;;;;;4.82;1.63;;;;;;;;;;8283750;28;20079;-64
2021/12/04 21:55:59;;;;;;;4.63;1.50;;;;;;;;;;8281136;28;20061;-64
2021/12/04 22:08:59;;;;;;;6.88;1.65;;;;;;;;;;8274796;28;20420;-64
2021/12/04 22:12:36;;;;;;;5.88;1.30;;;;;;;;;;8283960;28;20460;-63
2021/12/04 22:21:13;;;;;;;5.93;1.40;;;;;;;;;;8283506;28;20122;-64
2021/12/04 22:55:48;;;;;;;10.88;2.15;;;;;;;;;;8281214;28;20032;-64
2021/12/04 22:59:49;;;;;;;6.57;1.90;;;;;;;;;;8279051;28;20029;-64
2021/12/04 23:12:25;;;;;;;9.10;1.80;;;;;;;;;;8285578;28;20115;-64
2021/12/04 23:16:34;;;;;;;7.70;1.60;;;;;;;;;;8285079;28;20157;-64
2021/12/04 23:42:01;;;;;;;8.90;2.22;;;;;;;;;;8284162;28;20033;-64
2021/12/04 23:51:01;;;;;;;6.22;1.77;;;;;;;;;;8288443;28;20063;-64
